sensor_id;sensor_type;location;lat;lon;timestamp;P1;durP1;ratioP1;P2;durP2;ratioP2
19645;SDS011;9971;52.446;13.452;2022-10-17T00:01:16;8.05;;;7.20;;
19645;SDS011;9971;52.446;13.452;2022-10-17T00:06:19;7.10;;;6.40;;
19645;SDS011;9971;52.446;13.452;2022-10-17T00:11:22;8.83;;;7.53;;
19645;SDS011;9971;52.446;13.452;2022-10-17T00:16:26;8.25;;;6.95;;
19645;SDS011;9971;52.446;13.452;2022-10-17T00:21:27;7.95;;;7.17;;
19645;SDS011;9971;52.446;13.452;2022-10-17T00:26:29;7.73;;;6.93;;
19645;SDS011;9971;52.446;13.452;2022-10-17T00:31:32;6.55;;;5.95;;
19645;SDS011;9971;52.446;13.452;2022-10-17T00:36:34;6.67;;;5.90;;
19645;SDS011;9971;52.446;13.452;2022-10-17T00:41:36;6.97;;;6.37;;
19645;SDS011;9971;52.446;13.452;2022-10-17T00:46:39;7.22;;;6.53;;
19645;SDS011;9971;52.446;13.452;2022-10-17T00:51:44;6.78;;;6.12;;
19645;SDS011;9971;52.446;13.452;2022-10-17T00:56:44;6.92;;;6.22;;
19645;SDS011;9971;52.446;13.452;2022-10-17T01:01:51;6.97;;;6.27;;
19645;SDS011;9971;52.446;13.452;2022-10-17T01:07:08;8.13;;;5.67;;
19645;SDS011;9971;52.446;13.452;2022-10-17T01:12:11;6.80;;;6.07;;
19645;SDS011;9971;52.446;13.452;2022-10-17T01:17:24;6.87;;;6.07;;
19645;SDS011;9971;52.446;13.452;2022-10-17T01:22:27;6.07;;;5.53;;
19645;SDS011;9971;52.446;13.452;2022-10-17T01:27:48;5.87;;;5.20;;
19645;SDS011;9971;52.446;13.452;2022-10-17T01:33:05;6.67;;;6.00;;
19645;SDS011;9971;52.446;13.452;2022-10-17T01:38:10;6.67;;;5.77;;
19645;SDS011;9971;52.446;13.452;2022-10-17T01:43:16;7.40;;;5.60;;
19645;SDS011;9971;52.446;13.452;2022-10-17T01:48:21;5.30;;;4.80;;
19645;SDS011;9971;52.446;13.452;2022-10-17T01:53:27;6.07;;;5.50;;
19645;SDS011;9971;52.446;13.452;2022-10-17T01:58:31;6.07;;;5.57;;
19645;SDS011;9971;52.446;13.452;2022-10-17T02:03:32;5.50;;;4.90;;
19645;SDS011;9971;52.446;13.452;2022-10-17T02:08:41;6.07;;;5.50;;
19645;SDS011;9971;52.446;13.452;2022-10-17T02:19:05;6.00;;;5.35;;
19645;SDS011;9971;52.446;13.452;2022-10-17T02:24:24;5.50;;;4.83;;
19645;SDS011;9971;52.446;13.452;2022-10-17T02:29:29;5.00;;;4.55;;
19645;SDS011;9971;52.446;13.452;2022-10-17T02:34:31;5.30;;;4.87;;
19645;SDS011;9971;52.446;13.452;2022-10-17T02:39:31;5.80;;;4.67;;
19645;SDS011;9971;52.446;13.452;2022-10-17T02:44:34;4.70;;;4.30;;
19645;SDS011;9971;52.446;13.452;2022-10-17T02:49:37;4.93;;;4.53;;
19645;SDS011;9971;52.446;13.452;2022-10-17T02:59:53;4.40;;;4.10;;
19645;SDS011;9971;52.446;13.452;2022-10-17T03:04:55;4.10;;;3.80;;
19645;SDS011;9971;52.446;13.452;2022-10-17T03:09:57;4.22;;;3.92;;
19645;SDS011;9971;52.446;13.452;2022-10-17T03:15:00;3.80;;;3.50;;
19645;SDS011;9971;52.446;13.452;2022-10-17T03:20:02;4.30;;;4.00;;
19645;SDS011;9971;52.446;13.452;2022-10-17T03:25:04;4.03;;;3.75;;
19645;SDS011;9971;52.446;13.452;2022-10-17T03:30:07;3.95;;;3.47;;
19645;SDS011;9971;52.446;13.452;2022-10-17T03:35:10;4.00;;;3.60;;
19645;SDS011;9971;52.446;13.452;2022-10-17T03:40:12;3.70;;;3.40;;
19645;SDS011;9971;52.446;13.452;2022-10-17T03:45:14;3.83;;;3.53;;
19645;SDS011;9971;52.446;13.452;2022-10-17T03:50:17;3.80;;;3.58;;
19645;SDS011;9971;52.446;13.452;2022-10-17T03:55:20;4.37;;;3.87;;
19645;SDS011;9971;52.446;13.452;2022-10-17T04:00:22;3.60;;;3.20;;
19645;SDS011;9971;52.446;13.452;2022-10-17T04:05:24;4.35;;;3.98;;
19645;SDS011;9971;52.446;13.452;2022-10-17T04:10:26;4.03;;;3.63;;
19645;SDS011;9971;52.446;13.452;2022-10-17T04:15:29;3.85;;;3.55;;
19645;SDS011;9971;52.446;13.452;2022-10-17T04:20:33;3.90;;;3.65;;
19645;SDS011;9971;52.446;13.452;2022-10-17T04:25:33;3.87;;;3.57;;
19645;SDS011;9971;52.446;13.452;2022-10-17T04:30:36;4.00;;;3.67;;
19645;SDS011;9971;52.446;13.452;2022-10-17T04:35:38;4.17;;;3.77;;
19645;SDS011;9971;52.446;13.452;2022-10-17T04:40:41;4.15;;;3.77;;
19645;SDS011;9971;52.446;13.452;2022-10-17T04:45:43;4.05;;;3.75;;
19645;SDS011;9971;52.446;13.452;2022-10-17T04:55:56;4.40;;;4.10;;
19645;SDS011;9971;52.446;13.452;2022-10-17T05:01:03;4.20;;;3.87;;
19645;SDS011;9971;52.446;13.452;2022-10-17T05:06:02;3.87;;;3.57;;
19645;SDS011;9971;52.446;13.452;2022-10-17T05:11:04;4.30;;;3.90;;
19645;SDS011;9971;52.446;13.452;2022-10-17T05:16:06;4.10;;;3.80;;
19645;SDS011;9971;52.446;13.452;2022-10-17T05:21:08;4.17;;;3.87;;
19645;SDS011;9971;52.446;13.452;2022-10-17T05:26:11;4.43;;;4.03;;
19645;SDS011;9971;52.446;13.452;2022-10-17T05:31:13;4.90;;;4.42;;
19645;SDS011;9971;52.446;13.452;2022-10-17T05:36:15;4.40;;;4.00;;
19645;SDS011;9971;52.446;13.452;2022-10-17T05:41:17;3.77;;;3.47;;
19645;SDS011;9971;52.446;13.452;2022-10-17T05:46:19;4.37;;;4.07;;
19645;SDS011;9971;52.446;13.452;2022-10-17T05:51:21;3.57;;;3.37;;
19645;SDS011;9971;52.446;13.452;2022-10-17T05:56:23;4.47;;;4.10;;
19645;SDS011;9971;52.446;13.452;2022-10-17T06:01:26;4.28;;;3.92;;
19645;SDS011;9971;52.446;13.452;2022-10-17T06:06:28;4.93;;;4.20;;
19645;SDS011;9971;52.446;13.452;2022-10-17T06:11:31;5.28;;;3.87;;
19645;SDS011;9971;52.446;13.452;2022-10-17T06:16:33;4.57;;;4.13;;
19645;SDS011;9971;52.446;13.452;2022-10-17T06:21:35;4.30;;;3.50;;
19645;SDS011;9971;52.446;13.452;2022-10-17T06:26:37;4.50;;;4.10;;
19645;SDS011;9971;52.446;13.452;2022-10-17T06:31:40;3.90;;;3.58;;
19645;SDS011;9971;52.446;13.452;2022-10-17T06:36:42;4.40;;;3.95;;
19645;SDS011;9971;52.446;13.452;2022-10-17T06:41:45;4.15;;;3.75;;
19645;SDS011;9971;52.446;13.452;2022-10-17T06:46:47;4.45;;;4.05;;
19645;SDS011;9971;52.446;13.452;2022-10-17T06:51:50;4.20;;;3.90;;
19645;SDS011;9971;52.446;13.452;2022-10-17T06:56:53;4.22;;;3.77;;
19645;SDS011;9971;52.446;13.452;2022-10-17T07:01:55;4.13;;;3.77;;
19645;SDS011;9971;52.446;13.452;2022-10-17T07:06:57;4.62;;;3.67;;
19645;SDS011;9971;52.446;13.452;2022-10-17T07:11:59;3.87;;;3.58;;
19645;SDS011;9971;52.446;13.452;2022-10-17T07:17:02;4.20;;;3.87;;
19645;SDS011;9971;52.446;13.452;2022-10-17T07:22:04;4.05;;;3.72;;
19645;SDS011;9971;52.446;13.452;2022-10-17T07:27:07;3.92;;;3.62;;
19645;SDS011;9971;52.446;13.452;2022-10-17T07:32:09;3.97;;;3.67;;
19645;SDS011;9971;52.446;13.452;2022-10-17T07:37:11;5.22;;;3.77;;
19645;SDS011;9971;52.446;13.452;2022-10-17T07:42:14;4.97;;;3.92;;
19645;SDS011;9971;52.446;13.452;2022-10-17T07:47:16;6.97;;;4.23;;
19645;SDS011;9971;52.446;13.452;2022-10-17T07:52:19;4.28;;;3.95;;
19645;SDS011;9971;52.446;13.452;2022-10-17T07:57:21;3.85;;;3.55;;
19645;SDS011;9971;52.446;13.452;2022-10-17T08:02:24;3.90;;;3.52;;
19645;SDS011;9971;52.446;13.452;2022-10-17T08:07:26;3.97;;;3.10;;
19645;SDS011;9971;52.446;13.452;2022-10-17T08:12:28;3.25;;;2.72;;
19645;SDS011;9971;52.446;13.452;2022-10-17T08:17:31;4.03;;;3.07;;
19645;SDS011;9971;52.446;13.452;2022-10-17T08:22:33;3.13;;;2.80;;
19645;SDS011;9971;52.446;13.452;2022-10-17T08:27:35;2.98;;;2.77;;
19645;SDS011;9971;52.446;13.452;2022-10-17T08:32:38;3.05;;;2.75;;
19645;SDS011;9971;52.446;13.452;2022-10-17T08:37:40;2.87;;;2.67;;
19645;SDS011;9971;52.446;13.452;2022-10-17T08:42:54;2.70;;;2.50;;
19645;SDS011;9971;52.446;13.452;2022-10-17T08:47:58;2.40;;;2.20;;
19645;SDS011;9971;52.446;13.452;2022-10-17T08:53:01;3.10;;;2.40;;
19645;SDS011;9971;52.446;13.452;2022-10-17T08:58:13;2.77;;;2.27;;
19645;SDS011;9971;52.446;13.452;2022-10-17T09:03:26;3.30;;;2.73;;
19645;SDS011;9971;52.446;13.452;2022-10-17T09:08:23;2.57;;;2.37;;
19645;SDS011;9971;52.446;13.452;2022-10-17T09:18:57;2.60;;;2.40;;
19645;SDS011;9971;52.446;13.452;2022-10-17T09:24:03;2.27;;;2.07;;
19645;SDS011;9971;52.446;13.452;2022-10-17T09:29:04;2.17;;;2.03;;
19645;SDS011;9971;52.446;13.452;2022-10-17T09:34:07;2.37;;;2.17;;
19645;SDS011;9971;52.446;13.452;2022-10-17T09:39:11;2.58;;;2.37;;
19645;SDS011;9971;52.446;13.452;2022-10-17T09:44:16;2.47;;;2.10;;
19645;SDS011;9971;52.446;13.452;2022-10-17T09:49:17;2.43;;;2.23;;
19645;SDS011;9971;52.446;13.452;2022-10-17T09:54:19;3.02;;;2.08;;
19645;SDS011;9971;52.446;13.452;2022-10-17T10:04:32;2.40;;;2.20;;
19645;SDS011;9971;52.446;13.452;2022-10-17T10:09:34;2.35;;;2.08;;
19645;SDS011;9971;52.446;13.452;2022-10-17T10:14:36;2.92;;;2.22;;
19645;SDS011;9971;52.446;13.452;2022-10-17T10:19:38;3.02;;;2.20;;
19645;SDS011;9971;52.446;13.452;2022-10-17T10:24:40;2.77;;;2.58;;
19645;SDS011;9971;52.446;13.452;2022-10-17T10:29:47;2.47;;;2.13;;
19645;SDS011;9971;52.446;13.452;2022-10-17T10:34:54;1.97;;;1.57;;
19645;SDS011;9971;52.446;13.452;2022-10-17T10:40:01;1.60;;;1.50;;
19645;SDS011;9971;52.446;13.452;2022-10-17T10:45:12;1.82;;;1.47;;
19645;SDS011;9971;52.446;13.452;2022-10-17T10:50:17;1.80;;;1.70;;
19645;SDS011;9971;52.446;13.452;2022-10-17T10:55:25;0.93;;;0.93;;
19645;SDS011;9971;52.446;13.452;2022-10-17T11:00:29;0.20;;;0.20;;
19645;SDS011;9971;52.446;13.452;2022-10-17T11:05:54;1.27;;;1.27;;
19645;SDS011;9971;52.446;13.452;2022-10-17T11:10:58;0.70;;;0.70;;
19645;SDS011;9971;52.446;13.452;2022-10-17T11:16:00;1.03;;;0.97;;
19645;SDS011;9971;52.446;13.452;2022-10-17T11:26:39;0.57;;;0.57;;
19645;SDS011;9971;52.446;13.452;2022-10-17T11:31:42;0.10;;;0.10;;
19645;SDS011;9971;52.446;13.452;2022-10-17T11:36:43;0.23;;;0.20;;
19645;SDS011;9971;52.446;13.452;2022-10-17T11:41:47;0.50;;;0.50;;
19645;SDS011;9971;52.446;13.452;2022-10-17T11:47:16;2.23;;;2.00;;
19645;SDS011;9971;52.446;13.452;2022-10-17T11:52:31;0.63;;;0.63;;
19645;SDS011;9971;52.446;13.452;2022-10-17T11:57:36;1.50;;;1.40;;
19645;SDS011;9971;52.446;13.452;2022-10-17T12:02:41;1.50;;;1.40;;
19645;SDS011;9971;52.446;13.452;2022-10-17T12:07:50;2.20;;;1.70;;
19645;SDS011;9971;52.446;13.452;2022-10-17T12:12:50;0.90;;;0.90;;
19645;SDS011;9971;52.446;13.452;2022-10-17T12:17:57;0.90;;;0.90;;
19645;SDS011;9971;52.446;13.452;2022-10-17T12:23:02;1.70;;;1.60;;
19645;SDS011;9971;52.446;13.452;2022-10-17T12:28:20;0.70;;;0.70;;
19645;SDS011;9971;52.446;13.452;2022-10-17T12:33:33;1.70;;;1.60;;
19645;SDS011;9971;52.446;13.452;2022-10-17T12:38:39;0.90;;;0.90;;
19645;SDS011;9971;52.446;13.452;2022-10-17T12:43:47;0.50;;;0.50;;
19645;SDS011;9971;52.446;13.452;2022-10-17T12:54:00;1.30;;;1.30;;
19645;SDS011;9971;52.446;13.452;2022-10-17T12:59:02;1.90;;;1.80;;
19645;SDS011;9971;52.446;13.452;2022-10-17T13:04:02;1.87;;;1.70;;
19645;SDS011;9971;52.446;13.452;2022-10-17T13:09:07;1.20;;;1.20;;
19645;SDS011;9971;52.446;13.452;2022-10-17T13:14:10;2.07;;;1.93;;
19645;SDS011;9971;52.446;13.452;2022-10-17T13:19:12;1.77;;;1.67;;
19645;SDS011;9971;52.446;13.452;2022-10-17T13:24:19;2.80;;;1.97;;
19645;SDS011;9971;52.446;13.452;2022-10-17T13:29:22;1.93;;;1.83;;
19645;SDS011;9971;52.446;13.452;2022-10-17T13:34:24;1.43;;;1.33;;
19645;SDS011;9971;52.446;13.452;2022-10-17T13:39:27;1.82;;;1.72;;
19645;SDS011;9971;52.446;13.452;2022-10-17T13:44:32;1.50;;;1.40;;
19645;SDS011;9971;52.446;13.452;2022-10-17T13:49:36;2.40;;;1.90;;
19645;SDS011;9971;52.446;13.452;2022-10-17T13:54:39;3.87;;;1.80;;
19645;SDS011;9971;52.446;13.452;2022-10-17T13:59:41;1.60;;;1.50;;
19645;SDS011;9971;52.446;13.452;2022-10-17T14:04:43;1.43;;;1.33;;
19645;SDS011;9971;52.446;13.452;2022-10-17T14:09:45;1.60;;;1.50;;
19645;SDS011;9971;52.446;13.452;2022-10-17T14:14:49;2.10;;;2.00;;
19645;SDS011;9971;52.446;13.452;2022-10-17T14:19:51;1.82;;;1.72;;
19645;SDS011;9971;52.446;13.452;2022-10-17T14:24:54;1.27;;;1.27;;
19645;SDS011;9971;52.446;13.452;2022-10-17T14:29:57;3.37;;;1.73;;
19645;SDS011;9971;52.446;13.452;2022-10-17T14:34:59;1.70;;;1.60;;
19645;SDS011;9971;52.446;13.452;2022-10-17T14:40:02;2.47;;;1.80;;
19645;SDS011;9971;52.446;13.452;2022-10-17T14:45:05;1.80;;;1.70;;
19645;SDS011;9971;52.446;13.452;2022-10-17T14:50:39;2.40;;;2.20;;
19645;SDS011;9971;52.446;13.452;2022-10-17T14:55:26;1.93;;;1.83;;
19645;SDS011;9971;52.446;13.452;2022-10-17T15:00:27;2.07;;;1.60;;
19645;SDS011;9971;52.446;13.452;2022-10-17T15:05:30;2.47;;;1.50;;
19645;SDS011;9971;52.446;13.452;2022-10-17T15:10:33;2.40;;;1.30;;
19645;SDS011;9971;52.446;13.452;2022-10-17T15:15:34;1.43;;;1.33;;
19645;SDS011;9971;52.446;13.452;2022-10-17T15:20:36;1.37;;;1.27;;
19645;SDS011;9971;52.446;13.452;2022-10-17T15:25:38;1.60;;;1.50;;
19645;SDS011;9971;52.446;13.452;2022-10-17T15:30:40;1.85;;;1.60;;
19645;SDS011;9971;52.446;13.452;2022-10-17T15:35:43;1.50;;;1.40;;
19645;SDS011;9971;52.446;13.452;2022-10-17T15:40:45;1.50;;;1.40;;
19645;SDS011;9971;52.446;13.452;2022-10-17T15:45:47;2.00;;;1.52;;
19645;SDS011;9971;52.446;13.452;2022-10-17T15:50:50;1.62;;;1.52;;
19645;SDS011;9971;52.446;13.452;2022-10-17T15:55:52;1.40;;;1.30;;
19645;SDS011;9971;52.446;13.452;2022-10-17T16:00:54;2.53;;;2.33;;
19645;SDS011;9971;52.446;13.452;2022-10-17T16:05:57;3.25;;;2.33;;
19645;SDS011;9971;52.446;13.452;2022-10-17T16:10:59;3.90;;;2.97;;
19645;SDS011;9971;52.446;13.452;2022-10-17T16:16:02;3.58;;;2.87;;
19645;SDS011;9971;52.446;13.452;2022-10-17T16:21:04;3.92;;;3.00;;
19645;SDS011;9971;52.446;13.452;2022-10-17T16:26:07;2.50;;;2.20;;
19645;SDS011;9971;52.446;13.452;2022-10-17T16:31:14;3.93;;;3.53;;
19645;SDS011;9971;52.446;13.452;2022-10-17T16:36:13;4.67;;;3.53;;
19645;SDS011;9971;52.446;13.452;2022-10-17T16:41:18;5.75;;;3.95;;
19645;SDS011;9971;52.446;13.452;2022-10-17T16:46:18;3.70;;;3.40;;
19645;SDS011;9971;52.446;13.452;2022-10-17T16:51:20;4.60;;;3.47;;
19645;SDS011;9971;52.446;13.452;2022-10-17T16:56:22;4.13;;;3.73;;
19645;SDS011;9971;52.446;13.452;2022-10-17T17:01:24;3.52;;;3.22;;
19645;SDS011;9971;52.446;13.452;2022-10-17T17:06:27;5.53;;;3.47;;
19645;SDS011;9971;52.446;13.452;2022-10-17T17:11:28;4.27;;;3.43;;
19645;SDS011;9971;52.446;13.452;2022-10-17T17:16:31;6.63;;;3.80;;
19645;SDS011;9971;52.446;13.452;2022-10-17T17:21:33;3.72;;;3.42;;
19645;SDS011;9971;52.446;13.452;2022-10-17T17:26:34;7.43;;;4.63;;
19645;SDS011;9971;52.446;13.452;2022-10-17T17:31:37;5.20;;;4.00;;
19645;SDS011;9971;52.446;13.452;2022-10-17T17:36:39;4.05;;;3.70;;
19645;SDS011;9971;52.446;13.452;2022-10-17T17:41:42;3.70;;;3.40;;
19645;SDS011;9971;52.446;13.452;2022-10-17T17:46:44;4.00;;;3.50;;
19645;SDS011;9971;52.446;13.452;2022-10-17T17:51:46;4.78;;;3.10;;
19645;SDS011;9971;52.446;13.452;2022-10-17T17:56:48;3.95;;;3.52;;
19645;SDS011;9971;52.446;13.452;2022-10-17T18:01:51;5.93;;;3.67;;
19645;SDS011;9971;52.446;13.452;2022-10-17T18:06:53;4.28;;;3.87;;
19645;SDS011;9971;52.446;13.452;2022-10-17T18:11:56;4.65;;;3.90;;
19645;SDS011;9971;52.446;13.452;2022-10-17T18:16:58;8.20;;;6.12;;
19645;SDS011;9971;52.446;13.452;2022-10-17T18:22:01;7.78;;;6.65;;
19645;SDS011;9971;52.446;13.452;2022-10-17T18:27:03;9.23;;;7.28;;
19645;SDS011;9971;52.446;13.452;2022-10-17T18:32:06;5.72;;;5.15;;
19645;SDS011;9971;52.446;13.452;2022-10-17T18:37:08;5.63;;;4.30;;
19645;SDS011;9971;52.446;13.452;2022-10-17T18:42:10;8.18;;;4.85;;
19645;SDS011;9971;52.446;13.452;2022-10-17T18:47:13;4.47;;;3.98;;
19645;SDS011;9971;52.446;13.452;2022-10-17T18:52:15;5.43;;;4.93;;
19645;SDS011;9971;52.446;13.452;2022-10-17T18:57:18;5.55;;;4.28;;
19645;SDS011;9971;52.446;13.452;2022-10-17T19:02:20;5.27;;;4.07;;
19645;SDS011;9971;52.446;13.452;2022-10-17T19:07:22;6.27;;;3.83;;
19645;SDS011;9971;52.446;13.452;2022-10-17T19:12:25;6.80;;;3.50;;
19645;SDS011;9971;52.446;13.452;2022-10-17T19:17:27;4.90;;;4.30;;
19645;SDS011;9971;52.446;13.452;2022-10-17T19:22:29;5.72;;;4.35;;
19645;SDS011;9971;52.446;13.452;2022-10-17T19:27:32;5.57;;;4.03;;
19645;SDS011;9971;52.446;13.452;2022-10-17T19:32:34;7.07;;;5.17;;
19645;SDS011;9971;52.446;13.452;2022-10-17T19:37:37;4.95;;;4.40;;
19645;SDS011;9971;52.446;13.452;2022-10-17T19:42:39;4.75;;;4.30;;
19645;SDS011;9971;52.446;13.452;2022-10-17T19:47:42;7.20;;;4.10;;
19645;SDS011;9971;52.446;13.452;2022-10-17T19:52:45;5.10;;;4.60;;
19645;SDS011;9971;52.446;13.452;2022-10-17T19:57:47;6.13;;;4.40;;
19645;SDS011;9971;52.446;13.452;2022-10-17T20:02:50;6.62;;;5.20;;
19645;SDS011;9971;52.446;13.452;2022-10-17T20:07:52;5.67;;;5.28;;
19645;SDS011;9971;52.446;13.452;2022-10-17T20:12:54;5.80;;;5.20;;
19645;SDS011;9971;52.446;13.452;2022-10-17T20:17:56;6.05;;;5.47;;
19645;SDS011;9971;52.446;13.452;2022-10-17T20:22:58;6.27;;;5.67;;
19645;SDS011;9971;52.446;13.452;2022-10-17T20:28:01;6.33;;;5.60;;
19645;SDS011;9971;52.446;13.452;2022-10-17T20:33:03;7.58;;;5.50;;
19645;SDS011;9971;52.446;13.452;2022-10-17T20:38:06;6.97;;;5.72;;
19645;SDS011;9971;52.446;13.452;2022-10-17T20:43:09;6.97;;;6.28;;
19645;SDS011;9971;52.446;13.452;2022-10-17T20:48:11;6.20;;;5.60;;
19645;SDS011;9971;52.446;13.452;2022-10-17T20:53:12;7.67;;;6.40;;
19645;SDS011;9971;52.446;13.452;2022-10-17T20:58:14;6.77;;;6.17;;
19645;SDS011;9971;52.446;13.452;2022-10-17T21:03:17;7.22;;;6.45;;
19645;SDS011;9971;52.446;13.452;2022-10-17T21:08:19;6.75;;;6.05;;
19645;SDS011;9971;52.446;13.452;2022-10-17T21:13:22;7.15;;;6.45;;
19645;SDS011;9971;52.446;13.452;2022-10-17T21:18:24;8.13;;;7.42;;
19645;SDS011;9971;52.446;13.452;2022-10-17T21:23:26;7.17;;;6.53;;
19645;SDS011;9971;52.446;13.452;2022-10-17T21:28:29;6.58;;;6.03;;
19645;SDS011;9971;52.446;13.452;2022-10-17T21:33:31;11.07;;;9.53;;
19645;SDS011;9971;52.446;13.452;2022-10-17T21:38:34;9.75;;;7.55;;
19645;SDS011;9971;52.446;13.452;2022-10-17T21:43:36;9.00;;;7.90;;
19645;SDS011;9971;52.446;13.452;2022-10-17T21:48:38;8.40;;;7.70;;
19645;SDS011;9971;52.446;13.452;2022-10-17T21:53:40;8.70;;;7.73;;
19645;SDS011;9971;52.446;13.452;2022-10-17T21:58:42;7.57;;;6.87;;
19645;SDS011;9971;52.446;13.452;2022-10-17T22:03:45;7.80;;;7.13;;
19645;SDS011;9971;52.446;13.452;2022-10-17T22:08:46;8.97;;;8.17;;
19645;SDS011;9971;52.446;13.452;2022-10-17T22:13:51;8.10;;;7.33;;
19645;SDS011;9971;52.446;13.452;2022-10-17T22:18:50;8.70;;;7.07;;
19645;SDS011;9971;52.446;13.452;2022-10-17T22:23:57;7.80;;;7.10;;
19645;SDS011;9971;52.446;13.452;2022-10-17T22:28:58;9.30;;;8.27;;
19645;SDS011;9971;52.446;13.452;2022-10-17T22:34:00;9.13;;;8.13;;
19645;SDS011;9971;52.446;13.452;2022-10-17T22:39:03;8.43;;;7.00;;
19645;SDS011;9971;52.446;13.452;2022-10-17T22:44:05;7.20;;;6.50;;
19645;SDS011;9971;52.446;13.452;2022-10-17T22:49:07;9.33;;;8.53;;
19645;SDS011;9971;52.446;13.452;2022-10-17T22:54:09;8.73;;;7.92;;
19645;SDS011;9971;52.446;13.452;2022-10-17T22:59:11;9.18;;;7.97;;
19645;SDS011;9971;52.446;13.452;2022-10-17T23:04:14;9.78;;;8.83;;
19645;SDS011;9971;52.446;13.452;2022-10-17T23:09:16;9.35;;;8.28;;
19645;SDS011;9971;52.446;13.452;2022-10-17T23:14:19;9.90;;;8.53;;
19645;SDS011;9971;52.446;13.452;2022-10-17T23:19:21;9.53;;;8.63;;
19645;SDS011;9971;52.446;13.452;2022-10-17T23:24:24;9.03;;;8.13;;
19645;SDS011;9971;52.446;13.452;2022-10-17T23:29:30;8.73;;;7.87;;
19645;SDS011;9971;52.446;13.452;2022-10-17T23:34:28;8.40;;;7.63;;
19645;SDS011;9971;52.446;13.452;2022-10-17T23:39:30;9.65;;;8.33;;
19645;SDS011;9971;52.446;13.452;2022-10-17T23:44:33;10.25;;;9.28;;
19645;SDS011;9971;52.446;13.452;2022-10-17T23:49:35;9.47;;;8.47;;
19645;SDS011;9971;52.446;13.452;2022-10-17T23:54:38;9.80;;;8.80;;
19645;SDS011;9971;52.446;13.452;2022-10-17T23:59:40;9.83;;;8.67;;
